Strona główna
METAR-TAF:

METAR-TAF

Lotnisko :

Port lotniczy Land’s End

Land's End, Anglia

Szerokość geograficzna: 50-06-10N, Długość geograficzna: 005-40-14W, wysokość: 122 m

Aktualna obserwacja pogody

Raport powstał 11 godziny i 46 minut temu, godzina 16:50 UTC
Wiatr 20 kt od wschód
Temperatura 7°C
Wilgotność 93%
Ciśnienie 1024 hPa
Widzialność: 2500 m
Mało chmury na wysokości 400 ft
Rozproszone chmury na wysokości 500 ft
zmętnienie

METAR: EGHC 021650Z 10020KT 2500 HZ FEW004 SCT005 07/06 Q1024

czas: 04:36 (04:36 UTC)

Prognoza

Raport powstał 13 godziny i 26 minut temu, godzina 15:10 UTC
Prognoza ważna od 02 godzina 15 UTC do 02 godzina 18 UTC
Wiatr 18 kt od wschód
Widzialność: 3000 m
Mało chmury na wysokości 400 ft
zamglenie
Prawdopodobieństwo 30% :
Przejściowo
od 02 godzina 15 UTC do 02 godzina 18 UTC
Widzialność: 7000 m
Przerywane chmury na wysokości 400 ft
przelotny opad deszczu

TAF: EGHC 021510Z 0215/0218 10018KT 3000 BR FEW004 PROB30 TEMPO 0215/0218 7000 SHRA BKN004

Obserwacja i prognoza pogody dla ponad 4000 lotnisk (raport METAR i TAF).

Dostępne stacje oznaczono żółtymi i czerwonymi punktami na mapie.

Najedź kursorem aby zobaczyć nazwę stacji.

Kliknij aby zobaczyć obserwacje i prognozy pogody.

Aby zmienić mapę: kliknij na zielony przycisk z czarnym krzyżykiem, aby powiększyć; na zielony przycisk z myślnikiem, aby pomniejszyć; na zielone strzałki, aby przejść do map sąsiednich.


METAR-TAF: